createdAt,value
2018-12-14T00:02:10.142Z,66.84
2018-12-14T00:04:38.666Z,67.36
2018-12-14T00:07:07.181Z,67.95
2018-12-14T00:09:35.720Z,68.09
2018-12-14T00:12:04.239Z,68.42
2018-12-14T00:14:32.748Z,68.70
2018-12-14T00:17:01.291Z,68.65
2018-12-14T00:19:29.801Z,68.41
2018-12-14T00:21:58.415Z,68.64
2018-12-14T00:24:26.936Z,68.99
2018-12-14T00:26:55.702Z,68.83
2018-12-14T00:29:24.224Z,69.51
2018-12-14T00:31:52.731Z,69.43
2018-12-14T00:34:21.299Z,69.02
2018-12-14T00:36:50.488Z,69.42
2018-12-14T00:39:18.982Z,69.00
2018-12-14T00:41:51.879Z,69.06
2018-12-14T00:44:18.038Z,69.40
2018-12-14T00:46:46.649Z,69.32
2018-12-14T00:49:15.168Z,69.73
2018-12-14T00:51:43.702Z,69.34
2018-12-14T00:54:12.300Z,69.88
2018-12-14T00:56:40.880Z,69.38
2018-12-14T00:59:09.443Z,69.21
2018-12-14T01:01:37.919Z,69.22
2018-12-14T01:04:06.492Z,68.97
2018-12-14T01:06:35.047Z,69.06
2018-12-14T01:09:04.888Z,69.37
2018-12-14T01:11:33.568Z,69.89
2018-12-14T01:14:02.114Z,69.71
2018-12-14T01:16:30.649Z,70.23
2018-12-14T01:18:59.332Z,70.58
2018-12-14T01:21:27.893Z,70.77
2018-12-14T01:23:56.507Z,70.62
2018-12-14T01:26:25.030Z,70.86
2018-12-14T01:28:53.881Z,71.29
2018-12-14T01:31:22.436Z,70.83
2018-12-14T01:33:51.031Z,71.09
2018-12-14T01:36:19.698Z,70.21
2018-12-14T01:38:48.279Z,69.81
2018-12-14T01:41:16.838Z,70.03
2018-12-14T01:43:45.433Z,70.11
2018-12-14T01:46:13.949Z,69.50
2018-12-14T01:48:42.574Z,69.46
2018-12-14T01:51:11.123Z,69.68
2018-12-14T01:53:39.652Z,69.78
2018-12-14T01:56:08.169Z,69.24
2018-12-14T01:58:36.715Z,69.82
2018-12-14T02:01:05.256Z,69.72
2018-12-14T02:03:33.870Z,70.37
2018-12-14T02:06:02.407Z,71.60
2018-12-14T02:08:31.007Z,72.02
2018-12-14T02:10:59.882Z,71.75
2018-12-14T02:13:28.443Z,75.96
2018-12-14T02:15:56.989Z,74.82
2018-12-14T02:18:25.523Z,70.50
2018-12-14T02:20:54.098Z,70.91
2018-12-14T02:23:22.645Z,71.78
2018-12-14T02:25:51.172Z,72.48
2018-12-14T02:28:19.725Z,72.63
2018-12-14T02:30:48.300Z,73.36
2018-12-14T02:33:17.224Z,73.89
2018-12-14T02:35:46.028Z,74.09
2018-12-14T02:38:14.569Z,75.05
2018-12-14T02:40:43.160Z,75.41
2018-12-14T02:43:11.742Z,77.25
2018-12-14T02:45:40.295Z,77.52
2018-12-14T02:48:08.873Z,78.90
2018-12-14T02:50:37.380Z,79.55
2018-12-14T02:53:05.931Z,79.83
2018-12-14T02:55:34.513Z,79.94
2018-12-14T02:58:03.045Z,79.90
2018-12-14T03:00:31.698Z,80.25
2018-12-14T03:03:00.230Z,80.72
2018-12-14T03:05:28.914Z,80.81
2018-12-14T03:07:57.600Z,80.31
2018-12-14T03:10:26.233Z,81.11
2018-12-14T03:12:54.727Z,81.44
2018-12-14T03:15:23.312Z,81.65
2018-12-14T03:17:51.856Z,82.09
2018-12-14T03:20:20.451Z,81.75
2018-12-14T03:22:49.003Z,83.08
2018-12-14T03:25:17.583Z,82.57
2018-12-14T03:27:46.095Z,82.83
2018-12-14T03:30:14.641Z,83.11
2018-12-14T03:32:43.197Z,84.11
2018-12-14T03:35:11.787Z,84.40
2018-12-14T03:37:40.320Z,85.51
2018-12-14T03:40:08.875Z,86.19
2018-12-14T03:42:37.425Z,87.58
2018-12-14T03:45:06.227Z,88.29
2018-12-14T03:47:34.736Z,89.01
2018-12-14T03:50:03.266Z,89.66
2018-12-14T03:52:31.876Z,89.66
2018-12-14T03:55:00.420Z,90.11
2018-12-14T03:57:29.001Z,90.85
2018-12-14T03:59:57.587Z,90.36
2018-12-14T04:02:26.097Z,91.11
2018-12-14T04:04:54.640Z,91.32
2018-12-14T04:07:23.332Z,91.78
2018-12-14T04:09:51.873Z,92.09
2018-12-14T04:12:20.389Z,92.30
2018-12-14T04:14:48.911Z,92.65
2018-12-14T04:17:17.431Z,92.88
2018-12-14T04:19:46.001Z,93.04
2018-12-14T04:22:14.651Z,92.96
2018-12-14T04:24:43.277Z,93.47
2018-12-14T04:27:11.861Z,94.14
2018-12-14T04:29:40.917Z,94.42
2018-12-14T04:32:09.602Z,94.50
2018-12-14T04:34:38.123Z,95.00
2018-12-14T04:37:06.662Z,95.35
2018-12-14T04:39:35.194Z,96.33
2018-12-14T04:42:03.912Z,96.47
2018-12-14T04:44:32.565Z,97.23
2018-12-14T04:47:01.238Z,97.71
2018-12-14T04:49:30.160Z,97.46
2018-12-14T04:52:01.693Z,97.31
2018-12-14T04:54:30.376Z,97.44
2018-12-14T04:56:58.950Z,97.94
2018-12-14T04:59:27.518Z,97.90
2018-12-14T05:01:56.074Z,98.43
2018-12-14T05:04:24.754Z,98.24
2018-12-14T05:06:53.275Z,98.37
2018-12-14T05:09:21.830Z,98.49
2018-12-14T05:11:50.419Z,97.85
2018-12-14T05:14:19.230Z,98.42
2018-12-14T05:16:47.797Z,97.93
2018-12-14T05:19:16.374Z,98.08
2018-12-14T05:21:45.005Z,98.45
2018-12-14T05:24:13.546Z,98.43
2018-12-14T05:26:42.133Z,97.74
2018-12-14T05:29:10.716Z,97.95
2018-12-14T05:31:39.277Z,97.20
2018-12-14T05:34:07.842Z,96.35
2018-12-14T05:36:36.465Z,96.07
2018-12-14T05:39:06.662Z,96.04
2018-12-14T05:41:35.603Z,95.40
2018-12-14T05:44:04.286Z,94.75
2018-12-14T05:46:34.077Z,95.80
2018-12-14T05:49:02.885Z,95.45
2018-12-14T05:51:31.457Z,96.08
2018-12-14T05:54:00.213Z,96.09
2018-12-14T05:56:29.126Z,96.31
2018-12-14T05:58:57.695Z,96.19
2018-12-14T06:01:26.254Z,96.71
2018-12-14T06:03:55.162Z,96.76
2018-12-14T06:06:23.774Z,96.60
2018-12-14T06:08:52.373Z,96.23
2018-12-14T06:11:20.925Z,96.90
2018-12-14T06:13:49.560Z,96.43
2018-12-14T06:16:18.148Z,95.99
2018-12-14T06:18:46.714Z,95.87
2018-12-14T06:21:15.303Z,96.43
2018-12-14T06:23:43.929Z,96.45
2018-12-14T06:26:12.472Z,96.33
2018-12-14T06:28:41.050Z,95.98
2018-12-14T06:31:09.569Z,96.67
2018-12-14T06:33:38.141Z,96.54
2018-12-14T06:36:06.731Z,96.82
2018-12-14T06:38:35.360Z,96.51
2018-12-14T06:41:04.009Z,96.74
2018-12-14T06:43:32.707Z,96.78
2018-12-14T06:46:01.241Z,96.91
2018-12-14T06:48:29.807Z,96.87
2018-12-14T06:50:58.883Z,96.31
2018-12-14T06:53:27.446Z,96.49
2018-12-14T06:55:55.997Z,95.73
2018-12-14T06:58:24.509Z,95.36
2018-12-14T07:00:53.033Z,95.84
2018-12-14T07:03:21.566Z,95.48
2018-12-14T07:05:50.153Z,94.76
2018-12-14T07:08:18.824Z,94.50
2018-12-14T07:10:47.413Z,94.22
2018-12-14T07:13:21.727Z,94.66
2018-12-14T07:15:46.624Z,94.25
2018-12-14T07:18:15.179Z,94.40
2018-12-14T07:20:43.870Z,93.15
2018-12-14T07:23:12.436Z,92.63
2018-12-14T07:25:41.216Z,92.53
2018-12-14T07:28:09.758Z,93.04
2018-12-14T07:30:38.326Z,93.40
2018-12-14T07:33:06.908Z,94.15
2018-12-14T07:35:41.731Z,94.77
2018-12-14T07:38:06.202Z,95.12
2018-12-14T07:40:34.877Z,95.58
2018-12-14T07:43:03.479Z,96.43
2018-12-14T07:45:32.172Z,96.20
2018-12-14T07:48:00.832Z,96.48
2018-12-14T07:50:29.619Z,96.90
2018-12-14T07:52:58.842Z,97.16
2018-12-14T07:55:27.658Z,97.45
2018-12-14T07:57:56.249Z,98.08
2018-12-14T08:00:26.228Z,98.29
2018-12-14T08:02:54.794Z,99.44
2018-12-14T08:05:23.424Z,99.78
2018-12-14T08:07:52.055Z,99.62
2018-12-14T08:10:20.696Z,100.00
2018-12-14T08:12:49.572Z,100.00
2018-12-14T08:15:18.452Z,100.00
2018-12-14T08:17:47.002Z,100.00
2018-12-14T08:20:17.280Z,100.00
2018-12-14T08:22:46.029Z,100.00
2018-12-14T08:25:15.066Z,100.00
2018-12-14T08:27:43.711Z,100.00
2018-12-14T08:30:12.477Z,100.00
2018-12-14T08:32:41.062Z,100.00
2018-12-14T08:35:09.815Z,100.00
2018-12-14T08:37:38.383Z,100.00
2018-12-14T08:40:07.889Z,100.00
2018-12-14T08:42:36.552Z,100.00
2018-12-14T08:45:05.418Z,100.00
2018-12-14T08:47:34.628Z,100.00
2018-12-14T08:50:03.257Z,100.00
2018-12-14T08:52:31.854Z,99.94
2018-12-14T08:55:00.416Z,100.00
2018-12-14T08:57:29.069Z,100.00
2018-12-14T08:59:57.701Z,100.00
2018-12-14T09:02:27.347Z,99.30
2018-12-14T09:04:56.217Z,99.46
2018-12-14T09:07:24.853Z,99.61
2018-12-14T09:09:53.610Z,99.57
2018-12-14T09:12:22.137Z,99.75
2018-12-14T09:14:50.742Z,99.24
2018-12-14T09:17:19.303Z,98.14
2018-12-14T09:19:48.711Z,97.83
2018-12-14T09:22:17.277Z,97.90
2018-12-14T09:24:45.837Z,98.26
2018-12-14T09:27:14.435Z,97.33
2018-12-14T09:29:43.346Z,97.52
2018-12-14T09:32:11.882Z,97.12
2018-12-14T09:34:41.381Z,97.14
2018-12-14T09:37:09.979Z,96.75
2018-12-14T09:39:38.541Z,96.94
2018-12-14T09:42:07.136Z,97.14
2018-12-14T09:44:35.994Z,96.65
2018-12-14T09:47:04.749Z,97.03
2018-12-14T09:49:33.302Z,96.95
2018-12-14T09:52:02.000Z,96.11
2018-12-14T09:54:30.556Z,96.35
2018-12-14T09:56:59.158Z,96.74
2018-12-14T09:59:28.429Z,96.09
2018-12-14T10:01:57.022Z,95.51
2018-12-14T10:04:25.587Z,94.82
2018-12-14T10:06:54.349Z,94.93
2018-12-14T10:09:22.971Z,96.01
2018-12-14T10:11:55.029Z,95.95
2018-12-14T10:14:22.175Z,96.54
2018-12-14T10:16:50.795Z,96.80
2018-12-14T10:19:19.351Z,96.52
2018-12-14T10:21:47.978Z,97.22
2018-12-14T10:24:16.655Z,97.29
2018-12-14T10:26:45.216Z,97.21
2018-12-14T10:29:13.748Z,98.04
2018-12-14T10:31:42.285Z,97.40
2018-12-14T10:34:10.917Z,97.72
2018-12-14T10:36:39.569Z,97.43
2018-12-14T10:39:08.264Z,98.27
2018-12-14T10:41:36.805Z,97.62
2018-12-14T10:44:07.602Z,97.12
2018-12-14T10:46:35.982Z,97.62
2018-12-14T10:49:04.601Z,97.86
2018-12-14T10:51:33.294Z,98.24
2018-12-14T10:54:01.813Z,98.64
2018-12-14T10:56:30.505Z,98.60
2018-12-14T10:58:59.055Z,98.72
2018-12-14T11:01:32.894Z,98.70
2018-12-14T11:04:01.517Z,98.04
2018-12-14T11:06:30.076Z,99.03
2018-12-14T11:08:58.595Z,99.38
2018-12-14T11:11:27.123Z,99.20
2018-12-14T11:13:55.721Z,100.00
2018-12-14T11:16:24.307Z,100.00
2018-12-14T11:18:53.237Z,100.00
2018-12-14T11:21:21.836Z,99.70
2018-12-14T11:23:50.405Z,100.00
2018-12-14T11:26:18.922Z,99.05
2018-12-14T11:28:47.476Z,100.00
2018-12-14T11:31:16.015Z,99.36
2018-12-14T11:33:44.793Z,99.12
2018-12-14T11:36:13.397Z,99.35
2018-12-14T11:38:41.989Z,99.29
2018-12-14T11:41:10.925Z,99.93
2018-12-14T11:43:39.499Z,99.55
2018-12-14T11:46:08.088Z,99.40
2018-12-14T11:48:36.826Z,98.40
2018-12-14T11:51:06.121Z,97.90
2018-12-14T11:53:34.691Z,97.26
2018-12-14T11:56:03.417Z,97.72
2018-12-14T11:58:32.003Z,97.14
2018-12-14T12:01:00.840Z,96.78
2018-12-14T12:03:29.351Z,96.35
2018-12-14T12:05:57.941Z,95.99
2018-12-14T12:08:26.503Z,95.79
2018-12-14T12:10:55.116Z,95.50
2018-12-14T12:13:23.663Z,95.91
2018-12-14T12:15:52.205Z,95.65
2018-12-14T12:18:20.819Z,96.01
2018-12-14T12:20:49.343Z,96.38
2018-12-14T12:23:24.403Z,96.84
2018-12-14T12:25:52.967Z,96.57
2018-12-14T12:28:21.550Z,96.74
2018-12-14T12:30:50.170Z,96.63
2018-12-14T12:33:18.996Z,96.71
2018-12-14T12:35:47.985Z,97.03
2018-12-14T12:38:16.547Z,96.85
2018-12-14T12:40:45.199Z,96.86
2018-12-14T12:43:13.749Z,97.09
2018-12-14T12:45:42.431Z,96.82
2018-12-14T12:48:10.946Z,96.68
2018-12-14T12:50:39.550Z,95.61
2018-12-14T12:53:08.184Z,95.73
2018-12-14T12:55:36.820Z,95.18
2018-12-14T12:58:05.486Z,95.50
2018-12-14T13:00:34.064Z,95.72
2018-12-14T13:03:02.661Z,95.67
2018-12-14T13:05:34.823Z,95.64
2018-12-14T13:08:02.006Z,95.89
2018-12-14T13:10:30.628Z,95.83
2018-12-14T13:12:59.144Z,96.90
2018-12-14T13:15:27.691Z,97.53
2018-12-14T13:17:56.806Z,98.01
2018-12-14T13:20:25.368Z,98.37
2018-12-14T13:22:53.968Z,98.77
2018-12-14T13:25:22.578Z,98.93
2018-12-14T13:27:51.174Z,99.65
2018-12-14T13:30:19.828Z,99.27
2018-12-14T13:32:48.424Z,99.85
2018-12-14T13:35:16.976Z,99.04
2018-12-14T13:37:45.626Z,100.00
2018-12-14T13:40:14.195Z,100.00
2018-12-14T13:42:42.912Z,100.00
2018-12-14T13:45:11.541Z,100.00
2018-12-14T13:47:40.121Z,100.00
2018-12-14T13:50:08.836Z,100.00
2018-12-14T13:52:37.663Z,100.00
2018-12-14T13:55:06.657Z,100.00
2018-12-14T13:57:35.232Z,100.00
2018-12-14T14:00:11.926Z,100.00
2018-12-14T14:02:40.510Z,100.00
2018-12-14T14:05:09.189Z,100.00
2018-12-14T14:07:38.158Z,100.00
2018-12-14T14:10:07.803Z,100.00
2018-12-14T14:12:36.364Z,100.00
2018-12-14T14:15:05.877Z,100.00
2018-12-14T14:17:34.568Z,100.00
2018-12-14T14:20:03.489Z,100.00
2018-12-14T14:22:32.182Z,100.00
2018-12-14T14:25:00.893Z,100.00
2018-12-14T14:27:29.566Z,100.00
2018-12-14T14:29:58.204Z,100.00
2018-12-14T14:32:26.723Z,100.00
2018-12-14T14:34:55.313Z,100.00
2018-12-14T14:37:23.864Z,100.00
2018-12-14T14:39:52.423Z,100.00
2018-12-14T14:42:20.983Z,100.00
2018-12-14T14:44:49.532Z,99.85
2018-12-14T14:47:18.139Z,99.80
2018-12-14T14:49:46.741Z,100.00
2018-12-14T14:52:15.324Z,99.98
2018-12-14T14:54:43.935Z,99.13
2018-12-14T14:57:12.606Z,98.98
2018-12-14T14:59:41.697Z,99.13
2018-12-14T15:02:10.280Z,98.18
2018-12-14T15:04:38.904Z,98.20
2018-12-14T15:07:07.443Z,97.67
2018-12-14T15:09:36.068Z,96.83
2018-12-14T15:12:04.703Z,97.52
2018-12-14T15:14:33.358Z,96.77
2018-12-14T15:17:01.964Z,96.72
2018-12-14T15:19:30.569Z,96.67
2018-12-14T15:22:04.579Z,97.18
2018-12-14T15:24:29.821Z,97.02
2018-12-14T15:26:59.205Z,96.86
2018-12-14T15:29:27.830Z,96.47
2018-12-14T15:31:56.821Z,96.99
2018-12-14T15:34:25.539Z,97.32
2018-12-14T15:36:54.213Z,97.18
2018-12-14T15:39:23.172Z,97.02
2018-12-14T15:41:51.740Z,97.56
2018-12-14T15:44:20.363Z,97.86
2018-12-14T15:46:48.975Z,98.08
2018-12-14T15:49:17.506Z,96.85
2018-12-14T15:51:46.083Z,97.80
2018-12-14T15:54:14.615Z,97.17
2018-12-14T15:56:43.266Z,97.89
2018-12-14T15:59:11.867Z,98.00
2018-12-14T16:01:40.595Z,97.78
2018-12-14T16:04:09.179Z,98.05
2018-12-14T16:06:37.709Z,98.69
2018-12-14T16:09:07.899Z,98.76
2018-12-14T16:11:36.490Z,98.56
2018-12-14T16:14:05.950Z,97.95
2018-12-14T16:16:34.538Z,98.68
2018-12-14T16:19:03.200Z,99.12
2018-12-14T16:21:31.859Z,98.62
2018-12-14T16:24:00.497Z,99.03
2018-12-14T16:26:29.054Z,99.21
2018-12-14T16:28:57.684Z,99.60
2018-12-14T16:31:26.353Z,100.00
2018-12-14T16:33:54.981Z,100.00
2018-12-14T16:36:24.003Z,100.00
2018-12-14T16:38:52.604Z,100.00
2018-12-14T16:41:21.124Z,100.00
2018-12-14T16:43:49.767Z,100.00
2018-12-14T16:46:18.304Z,100.00
2018-12-14T16:48:46.855Z,100.00
2018-12-14T16:51:15.426Z,100.00
2018-12-14T16:53:49.431Z,100.00
2018-12-14T16:56:18.229Z,100.00
2018-12-14T16:58:46.821Z,100.00
2018-12-14T17:01:15.437Z,100.00
2018-12-14T17:03:44.195Z,100.00
2018-12-14T17:06:12.785Z,100.00
2018-12-14T17:08:41.375Z,100.00
2018-12-14T17:11:09.977Z,100.00
2018-12-14T17:13:38.580Z,100.00
2018-12-14T17:16:07.242Z,100.00
2018-12-14T17:18:36.092Z,100.00
2018-12-14T17:21:05.365Z,100.00
2018-12-14T17:23:34.347Z,100.00
2018-12-14T17:26:03.243Z,100.00
2018-12-14T17:28:32.336Z,100.00
2018-12-14T17:31:00.908Z,100.00
2018-12-14T17:33:35.889Z,100.00
2018-12-14T17:36:00.103Z,100.00
2018-12-14T17:38:28.661Z,100.00
2018-12-14T17:40:57.703Z,100.00
2018-12-14T17:43:26.219Z,100.00
2018-12-14T17:45:54.825Z,100.00
2018-12-14T17:48:23.421Z,100.00
2018-12-14T17:50:52.001Z,100.00
2018-12-14T17:53:20.694Z,100.00
2018-12-14T17:55:49.912Z,100.00
2018-12-14T17:58:18.594Z,100.00
2018-12-14T18:00:47.314Z,100.00
2018-12-14T18:03:16.177Z,100.00
2018-12-14T18:05:44.910Z,100.00
2018-12-14T18:08:13.621Z,100.00
2018-12-14T18:10:42.630Z,100.00
2018-12-14T18:13:11.522Z,100.00
2018-12-14T18:15:46.315Z,100.00
2018-12-14T18:18:11.686Z,100.00
2018-12-14T18:20:40.402Z,100.00
2018-12-14T18:23:08.986Z,100.00
2018-12-14T18:25:39.354Z,100.00
2018-12-14T18:28:08.006Z,100.00
2018-12-14T18:30:36.628Z,100.00
2018-12-14T18:33:05.581Z,100.00
2018-12-14T18:35:34.371Z,100.00
2018-12-14T18:38:03.031Z,100.00
2018-12-14T18:40:31.722Z,100.00
2018-12-14T18:43:00.786Z,100.00
2018-12-14T18:45:29.475Z,100.00
2018-12-14T18:47:58.142Z,100.00
2018-12-14T18:50:26.780Z,100.00
2018-12-14T18:52:55.576Z,100.00
2018-12-14T18:55:24.246Z,100.00
2018-12-14T18:57:53.045Z,100.00
2018-12-14T19:00:21.646Z,100.00
2018-12-14T19:02:50.256Z,100.00
2018-12-14T19:05:18.908Z,100.00
2018-12-14T19:07:47.446Z,100.00
2018-12-14T19:10:16.056Z,100.00
2018-12-14T19:12:44.588Z,100.00
2018-12-14T19:15:13.230Z,100.00
2018-12-14T19:17:43.337Z,100.00
2018-12-14T19:20:12.042Z,100.00
2018-12-14T19:22:40.643Z,100.00
2018-12-14T19:25:09.251Z,100.00
2018-12-14T19:27:37.871Z,100.00
2018-12-14T19:30:14.494Z,100.00
2018-12-14T19:32:43.046Z,100.00
2018-12-14T19:35:11.777Z,100.00
2018-12-14T19:37:41.549Z,100.00
2018-12-14T19:40:10.789Z,100.00
2018-12-14T19:42:39.391Z,100.00
2018-12-14T19:45:09.847Z,100.00
2018-12-14T19:47:38.709Z,100.00
2018-12-14T19:50:08.350Z,100.00
2018-12-14T19:52:36.902Z,100.00
2018-12-14T19:55:06.237Z,100.00
2018-12-14T19:57:34.865Z,100.00
2018-12-14T20:00:11.686Z,100.00
2018-12-14T20:02:40.389Z,100.00
2018-12-14T20:05:09.345Z,100.00
2018-12-14T20:07:37.915Z,100.00
2018-12-14T20:10:07.404Z,100.00
2018-12-14T20:12:36.033Z,100.00
2018-12-14T20:15:05.201Z,100.00
2018-12-14T20:17:33.754Z,100.00
2018-12-14T20:20:02.291Z,100.00
2018-12-14T20:22:31.049Z,100.00
2018-12-14T20:24:59.795Z,100.00
2018-12-14T20:27:29.041Z,100.00
2018-12-14T20:29:57.943Z,100.00
2018-12-14T20:32:26.480Z,100.00
2018-12-14T20:34:55.492Z,100.00
2018-12-14T20:37:24.123Z,100.00
2018-12-14T20:39:53.715Z,100.00
2018-12-14T20:42:22.258Z,100.00
2018-12-14T20:44:50.895Z,100.00
2018-12-14T20:47:19.732Z,100.00
2018-12-14T20:49:48.425Z,100.00
2018-12-14T20:52:17.007Z,100.00
2018-12-14T20:54:45.570Z,100.00
2018-12-14T20:57:14.164Z,100.00
2018-12-14T20:59:42.728Z,100.00
2018-12-14T21:02:11.398Z,100.00
2018-12-14T21:04:39.936Z,100.00
2018-12-14T21:07:08.705Z,100.00
2018-12-14T21:09:37.370Z,100.00
2018-12-14T21:12:05.940Z,100.00
2018-12-14T21:14:34.842Z,100.00
2018-12-14T21:17:03.898Z,100.00
2018-12-14T21:19:32.585Z,100.00
2018-12-14T21:22:01.168Z,100.00
2018-12-14T21:24:29.871Z,100.00
2018-12-14T21:26:58.522Z,100.00
2018-12-14T21:29:27.216Z,100.00
2018-12-14T21:31:55.821Z,100.00
2018-12-14T21:34:24.371Z,100.00
2018-12-14T21:36:52.950Z,100.00
2018-12-14T21:39:21.524Z,100.00
2018-12-14T21:41:50.127Z,100.00
2018-12-14T21:44:18.687Z,100.00
2018-12-14T21:46:47.407Z,100.00
2018-12-14T21:49:16.090Z,100.00
2018-12-14T21:51:45.395Z,100.00
2018-12-14T21:54:22.447Z,100.00
2018-12-14T21:56:51.243Z,100.00
2018-12-14T21:59:19.841Z,100.00
2018-12-14T22:01:48.381Z,100.00
2018-12-14T22:04:16.968Z,100.00
2018-12-14T22:06:45.474Z,100.00
2018-12-14T22:09:14.024Z,100.00
2018-12-14T22:11:42.641Z,100.00
2018-12-14T22:14:11.237Z,100.00
2018-12-14T22:16:39.780Z,100.00
2018-12-14T22:19:08.350Z,100.00
2018-12-14T22:21:37.118Z,100.00
2018-12-14T22:24:05.718Z,100.00
2018-12-14T22:26:34.284Z,100.00
2018-12-14T22:29:02.862Z,100.00
2018-12-14T22:31:31.467Z,100.00
2018-12-14T22:34:00.030Z,100.00
2018-12-14T22:36:28.569Z,100.00
2018-12-14T22:38:57.161Z,100.00
2018-12-14T22:41:25.728Z,100.00
2018-12-14T22:44:00.952Z,100.00
2018-12-14T22:46:29.660Z,100.00
2018-12-14T22:48:58.387Z,100.00
2018-12-14T22:51:26.951Z,100.00
2018-12-14T22:53:55.501Z,100.00
2018-12-14T22:56:24.033Z,100.00
2018-12-14T22:58:52.626Z,100.00
2018-12-14T23:01:21.289Z,100.00
2018-12-14T23:03:49.836Z,100.00
2018-12-14T23:06:18.483Z,100.00
2018-12-14T23:08:47.142Z,100.00
2018-12-14T23:11:15.873Z,100.00
2018-12-14T23:13:44.448Z,100.00
2018-12-14T23:16:12.986Z,100.00
2018-12-14T23:18:41.573Z,100.00
2018-12-14T23:21:10.140Z,100.00
2018-12-14T23:23:38.750Z,100.00
2018-12-14T23:26:07.304Z,100.00
2018-12-14T23:28:35.866Z,100.00
2018-12-14T23:31:04.434Z,100.00
2018-12-14T23:33:33.132Z,100.00
2018-12-14T23:36:01.637Z,100.00
2018-12-14T23:38:30.190Z,100.00
2018-12-14T23:40:58.786Z,100.00
2018-12-14T23:43:27.317Z,100.00
2018-12-14T23:45:55.844Z,100.00
2018-12-14T23:48:24.429Z,100.00
2018-12-14T23:50:53.023Z,100.00
2018-12-14T23:53:21.569Z,100.00
2018-12-14T23:55:50.133Z,100.00
2018-12-14T23:58:18.638Z,100.00
